sensor_id;sensor_type;location;lat;lon;timestamp;P1;durP1;ratioP1;P2;durP2;ratioP2
86142;SDS011;76799;50.146;22.704;2024-03-25T00:03:42;13.35;;;7.43;;
86142;SDS011;76799;50.146;22.704;2024-03-25T00:09:29;14.32;;;6.95;;
86142;SDS011;76799;50.146;22.704;2024-03-25T00:15:16;14.38;;;6.82;;
86142;SDS011;76799;50.146;22.704;2024-03-25T00:21:03;14.93;;;7.40;;
86142;SDS011;76799;50.146;22.704;2024-03-25T00:26:50;14.77;;;7.65;;
86142;SDS011;76799;50.146;22.704;2024-03-25T00:32:37;14.63;;;7.35;;
86142;SDS011;76799;50.146;22.704;2024-03-25T00:47:13;14.38;;;6.60;;
86142;SDS011;76799;50.146;22.704;2024-03-25T00:53:00;14.90;;;6.97;;
86142;SDS011;76799;50.146;22.704;2024-03-25T00:58:47;16.08;;;7.72;;
86142;SDS011;76799;50.146;22.704;2024-03-25T01:04:34;13.32;;;5.93;;
86142;SDS011;76799;50.146;22.704;2024-03-25T01:10:21;14.15;;;7.00;;
86142;SDS011;76799;50.146;22.704;2024-03-25T01:16:09;14.45;;;6.85;;
86142;SDS011;76799;50.146;22.704;2024-03-25T01:21:56;17.02;;;7.13;;
86142;SDS011;76799;50.146;22.704;2024-03-25T01:27:43;16.20;;;7.03;;
86142;SDS011;76799;50.146;22.704;2024-03-25T01:33:30;14.95;;;7.00;;
86142;SDS011;76799;50.146;22.704;2024-03-25T01:42:54;13.10;;;6.60;;
86142;SDS011;76799;50.146;22.704;2024-03-25T01:48:43;16.42;;;7.18;;
86142;SDS011;76799;50.146;22.704;2024-03-25T01:54:30;12.63;;;6.32;;
86142;SDS011;76799;50.146;22.704;2024-03-25T02:00:17;12.57;;;6.72;;
86142;SDS011;76799;50.146;22.704;2024-03-25T02:06:06;15.20;;;7.40;;
86142;SDS011;76799;50.146;22.704;2024-03-25T02:11:56;12.75;;;6.70;;
86142;SDS011;76799;50.146;22.704;2024-03-25T02:17:43;12.00;;;6.20;;
86142;SDS011;76799;50.146;22.704;2024-03-25T02:23:30;15.65;;;7.45;;
86142;SDS011;76799;50.146;22.704;2024-03-25T02:29:18;13.35;;;6.57;;
86142;SDS011;76799;50.146;22.704;2024-03-25T02:35:10;15.00;;;6.75;;
86142;SDS011;76799;50.146;22.704;2024-03-25T02:49:39;17.50;;;7.93;;
86142;SDS011;76799;50.146;22.704;2024-03-25T02:55:26;14.13;;;6.90;;
86142;SDS011;76799;50.146;22.704;2024-03-25T03:01:15;15.68;;;6.85;;
86142;SDS011;76799;50.146;22.704;2024-03-25T03:07:03;14.18;;;7.10;;
86142;SDS011;76799;50.146;22.704;2024-03-25T03:12:50;15.52;;;7.13;;
86142;SDS011;76799;50.146;22.704;2024-03-25T03:18:37;13.95;;;7.05;;
86142;SDS011;76799;50.146;22.704;2024-03-25T03:24:24;14.75;;;6.13;;
86142;SDS011;76799;50.146;22.704;2024-03-25T03:30:11;11.02;;;5.93;;
86142;SDS011;76799;50.146;22.704;2024-03-25T03:35:58;13.40;;;6.95;;
86142;SDS011;76799;50.146;22.704;2024-03-25T03:45:10;12.23;;;7.00;;
86142;SDS011;76799;50.146;22.704;2024-03-25T03:50:46;12.27;;;7.05;;
86142;SDS011;76799;50.146;22.704;2024-03-25T03:56:33;12.27;;;6.40;;
86142;SDS011;76799;50.146;22.704;2024-03-25T04:02:20;12.85;;;5.93;;
86142;SDS011;76799;50.146;22.704;2024-03-25T04:08:07;10.45;;;5.60;;
86142;SDS011;76799;50.146;22.704;2024-03-25T04:13:54;13.82;;;7.13;;
86142;SDS011;76799;50.146;22.704;2024-03-25T04:19:42;12.70;;;6.07;;
86142;SDS011;76799;50.146;22.704;2024-03-25T04:35:34;12.98;;;6.35;;
86142;SDS011;76799;50.146;22.704;2024-03-25T04:41:21;14.85;;;6.63;;
86142;SDS011;76799;50.146;22.704;2024-03-25T04:47:09;13.10;;;6.05;;
86142;SDS011;76799;50.146;22.704;2024-03-25T04:49:34;14.02;;;6.88;;
86142;SDS011;76799;50.146;22.704;2024-03-25T04:51:59;10.80;;;5.70;;
86142;SDS011;76799;50.146;22.704;2024-03-25T04:54:25;11.88;;;5.97;;
86142;SDS011;76799;50.146;22.704;2024-03-25T04:56:50;11.48;;;6.65;;
86142;SDS011;76799;50.146;22.704;2024-03-25T04:59:15;13.68;;;6.65;;
86142;SDS011;76799;50.146;22.704;2024-03-25T05:01:41;10.38;;;6.00;;
86142;SDS011;76799;50.146;22.704;2024-03-25T05:07:28;13.32;;;5.93;;
86142;SDS011;76799;50.146;22.704;2024-03-25T05:13:15;11.55;;;5.95;;
86142;SDS011;76799;50.146;22.704;2024-03-25T05:19:02;11.55;;;5.82;;
86142;SDS011;76799;50.146;22.704;2024-03-25T05:24:50;11.98;;;6.13;;
86142;SDS011;76799;50.146;22.704;2024-03-25T05:30:38;17.85;;;7.10;;
86142;SDS011;76799;50.146;22.704;2024-03-25T05:36:25;11.88;;;6.25;;
86142;SDS011;76799;50.146;22.704;2024-03-25T05:51:04;12.93;;;6.13;;
86142;SDS011;76799;50.146;22.704;2024-03-25T05:56:52;11.65;;;5.82;;
86142;SDS011;76799;50.146;22.704;2024-03-25T06:02:39;13.10;;;7.00;;
86142;SDS011;76799;50.146;22.704;2024-03-25T06:08:26;14.68;;;6.95;;
86142;SDS011;76799;50.146;22.704;2024-03-25T06:14:13;13.70;;;6.00;;
86142;SDS011;76799;50.146;22.704;2024-03-25T06:23:34;13.70;;;6.22;;
86142;SDS011;76799;50.146;22.704;2024-03-25T06:29:21;13.52;;;6.85;;
86142;SDS011;76799;50.146;22.704;2024-03-25T06:35:08;12.25;;;5.90;;
86142;SDS011;76799;50.146;22.704;2024-03-25T06:40:56;11.75;;;6.43;;
86142;SDS011;76799;50.146;22.704;2024-03-25T06:46:43;12.85;;;6.72;;
86142;SDS011;76799;50.146;22.704;2024-03-25T06:52:30;13.90;;;6.57;;
86142;SDS011;76799;50.146;22.704;2024-03-25T06:58:18;13.85;;;6.70;;
86142;SDS011;76799;50.146;22.704;2024-03-25T07:27:38;13.80;;;5.68;;
86142;SDS011;76799;50.146;22.704;2024-03-25T07:33:25;13.35;;;6.22;;
86142;SDS011;76799;50.146;22.704;2024-03-25T07:39:12;11.73;;;5.72;;
86142;SDS011;76799;50.146;22.704;2024-03-25T07:50:21;13.57;;;5.15;;
86142;SDS011;76799;50.146;22.704;2024-03-25T07:56:08;8.05;;;4.53;;
86142;SDS011;76799;50.146;22.704;2024-03-25T08:07:24;9.77;;;3.53;;
86142;SDS011;76799;50.146;22.704;2024-03-25T08:13:11;7.47;;;3.90;;
86142;SDS011;76799;50.146;22.704;2024-03-25T08:18:39;5.55;;;3.35;;
86142;SDS011;76799;50.146;22.704;2024-03-25T08:24:07;7.95;;;3.75;;
86142;SDS011;76799;50.146;22.704;2024-03-25T08:29:35;7.47;;;3.42;;
86142;SDS011;76799;50.146;22.704;2024-03-25T08:35:22;5.78;;;3.17;;
86142;SDS011;76799;50.146;22.704;2024-03-25T08:40:51;7.75;;;4.18;;
86142;SDS011;76799;50.146;22.704;2024-03-25T08:55:18;5.82;;;2.60;;
86142;SDS011;76799;50.146;22.704;2024-03-25T09:06:33;6.00;;;2.72;;
86142;SDS011;76799;50.146;22.704;2024-03-25T09:12:01;7.72;;;3.08;;
86142;SDS011;76799;50.146;22.704;2024-03-25T09:17:29;4.93;;;2.95;;
86142;SDS011;76799;50.146;22.704;2024-03-25T09:23:17;7.47;;;3.40;;
86142;SDS011;76799;50.146;22.704;2024-03-25T09:29:04;10.45;;;3.50;;
86142;SDS011;76799;50.146;22.704;2024-03-25T09:34:51;5.15;;;2.35;;
86142;SDS011;76799;50.146;22.704;2024-03-25T09:40:41;6.18;;;2.42;;
86142;SDS011;76799;50.146;22.704;2024-03-25T09:50:04;2.97;;;1.98;;
86142;SDS011;76799;50.146;22.704;2024-03-25T09:55:52;3.90;;;2.00;;
86142;SDS011;76799;50.146;22.704;2024-03-25T10:01:39;3.40;;;1.70;;
86142;SDS011;76799;50.146;22.704;2024-03-25T10:07:26;2.92;;;1.42;;
86142;SDS011;76799;50.146;22.704;2024-03-25T10:13:15;3.30;;;1.73;;
86142;SDS011;76799;50.146;22.704;2024-03-25T10:19:02;2.47;;;1.60;;
86142;SDS011;76799;50.146;22.704;2024-03-25T10:24:49;2.90;;;1.48;;
86142;SDS011;76799;50.146;22.704;2024-03-25T10:30:37;2.50;;;1.75;;
86142;SDS011;76799;50.146;22.704;2024-03-25T10:36:24;3.30;;;1.63;;
86142;SDS011;76799;50.146;22.704;2024-03-25T10:42:12;1.80;;;1.35;;
86142;SDS011;76799;50.146;22.704;2024-03-25T10:51:22;2.42;;;1.27;;
86142;SDS011;76799;50.146;22.704;2024-03-25T10:57:11;2.47;;;1.30;;
86142;SDS011;76799;50.146;22.704;2024-03-25T11:02:59;2.53;;;1.27;;
86142;SDS011;76799;50.146;22.704;2024-03-25T11:08:55;3.67;;;1.77;;
86142;SDS011;76799;50.146;22.704;2024-03-25T11:14:44;1.58;;;1.35;;
86142;SDS011;76799;50.146;22.704;2024-03-25T11:20:31;1.30;;;1.10;;
86142;SDS011;76799;50.146;22.704;2024-03-25T11:32:06;3.67;;;1.80;;
86142;SDS011;76799;50.146;22.704;2024-03-25T11:37:54;1.83;;;1.25;;
86142;SDS011;76799;50.146;22.704;2024-03-25T11:43:41;3.53;;;1.83;;
86142;SDS011;76799;50.146;22.704;2024-03-25T11:55:25;2.78;;;1.40;;
86142;SDS011;76799;50.146;22.704;2024-03-25T12:01:13;1.85;;;1.33;;
86142;SDS011;76799;50.146;22.704;2024-03-25T12:07:00;1.70;;;1.30;;
86142;SDS011;76799;50.146;22.704;2024-03-25T12:12:23;3.67;;;1.55;;
86142;SDS011;76799;50.146;22.704;2024-03-25T12:18:10;1.50;;;1.40;;
86142;SDS011;76799;50.146;22.704;2024-03-25T12:23:57;1.58;;;1.27;;
86142;SDS011;76799;50.146;22.704;2024-03-25T12:29:56;3.47;;;2.00;;
86142;SDS011;76799;50.146;22.704;2024-03-25T12:35:47;3.13;;;1.73;;
86142;SDS011;76799;50.146;22.704;2024-03-25T12:41:35;3.00;;;1.52;;
86142;SDS011;76799;50.146;22.704;2024-03-25T12:47:22;4.03;;;1.80;;
86142;SDS011;76799;50.146;22.704;2024-03-25T12:58:29;2.40;;;1.48;;
86142;SDS011;76799;50.146;22.704;2024-03-25T13:04:16;2.65;;;1.55;;
86142;SDS011;76799;50.146;22.704;2024-03-25T13:10:03;2.08;;;1.40;;
86142;SDS011;76799;50.146;22.704;2024-03-25T13:15:51;4.68;;;1.98;;
86142;SDS011;76799;50.146;22.704;2024-03-25T13:21:38;5.63;;;3.10;;
86142;SDS011;76799;50.146;22.704;2024-03-25T13:27:26;4.05;;;2.22;;
86142;SDS011;76799;50.146;22.704;2024-03-25T13:33:13;13.32;;;6.30;;
86142;SDS011;76799;50.146;22.704;2024-03-25T14:00:45;1.98;;;1.27;;
86142;SDS011;76799;50.146;22.704;2024-03-25T14:06:32;5.45;;;1.90;;
86142;SDS011;76799;50.146;22.704;2024-03-25T14:15:41;3.05;;;1.60;;
86142;SDS011;76799;50.146;22.704;2024-03-25T14:21:28;4.45;;;1.60;;
86142;SDS011;76799;50.146;22.704;2024-03-25T14:27:15;3.50;;;1.92;;
86142;SDS011;76799;50.146;22.704;2024-03-25T14:32:49;6.18;;;2.63;;
86142;SDS011;76799;50.146;22.704;2024-03-25T14:38:36;9.27;;;4.55;;
86142;SDS011;76799;50.146;22.704;2024-03-25T14:44:26;12.18;;;5.78;;
86142;SDS011;76799;50.146;22.704;2024-03-25T14:50:13;3.35;;;2.45;;
86142;SDS011;76799;50.146;22.704;2024-03-25T14:56:01;5.22;;;2.80;;
86142;SDS011;76799;50.146;22.704;2024-03-25T15:46:03;3.70;;;1.60;;
86142;SDS011;76799;50.146;22.704;2024-03-25T15:51:51;3.90;;;1.40;;
86142;SDS011;76799;50.146;22.704;2024-03-25T15:57:38;2.13;;;1.60;;
86142;SDS011;76799;50.146;22.704;2024-03-25T16:21:29;2.35;;;0.95;;
86142;SDS011;76799;50.146;22.704;2024-03-25T16:42:40;4.00;;;2.00;;
86142;SDS011;76799;50.146;22.704;2024-03-25T16:48:27;3.45;;;1.98;;
86142;SDS011;76799;50.146;22.704;2024-03-25T16:54:14;2.35;;;1.58;;
86142;SDS011;76799;50.146;22.704;2024-03-25T17:00:02;5.05;;;1.90;;
86142;SDS011;76799;50.146;22.704;2024-03-25T17:10:13;3.38;;;1.90;;
86142;SDS011;76799;50.146;22.704;2024-03-25T17:19:22;4.22;;;1.85;;
86142;SDS011;76799;50.146;22.704;2024-03-25T17:25:08;6.95;;;2.60;;
86142;SDS011;76799;50.146;22.704;2024-03-25T17:30:55;3.65;;;2.47;;
86142;SDS011;76799;50.146;22.704;2024-03-25T17:36:07;3.35;;;2.15;;
86142;SDS011;76799;50.146;22.704;2024-03-25T17:41:55;3.65;;;1.98;;
86142;SDS011;76799;50.146;22.704;2024-03-25T17:47:46;2.88;;;1.95;;
86142;SDS011;76799;50.146;22.704;2024-03-25T17:53:33;9.98;;;3.63;;
86142;SDS011;76799;50.146;22.704;2024-03-25T17:59:20;10.25;;;5.03;;
86142;SDS011;76799;50.146;22.704;2024-03-25T18:05:07;11.95;;;6.47;;
86142;SDS011;76799;50.146;22.704;2024-03-25T18:21:00;5.57;;;3.05;;
86142;SDS011;76799;50.146;22.704;2024-03-25T18:26:28;6.28;;;2.30;;
86142;SDS011;76799;50.146;22.704;2024-03-25T18:32:16;4.75;;;2.25;;
86142;SDS011;76799;50.146;22.704;2024-03-25T18:46:51;71.60;;;27.98;;
86142;SDS011;76799;50.146;22.704;2024-03-25T18:58:07;56.00;;;21.27;;
86142;SDS011;76799;50.146;22.704;2024-03-25T19:04:14;37.50;;;13.35;;
86142;SDS011;76799;50.146;22.704;2024-03-25T19:10:02;22.90;;;11.57;;
86142;SDS011;76799;50.146;22.704;2024-03-25T19:15:51;22.15;;;10.55;;
86142;SDS011;76799;50.146;22.704;2024-03-25T19:21:19;31.48;;;11.73;;
86142;SDS011;76799;50.146;22.704;2024-03-25T19:26:47;37.92;;;13.38;;
86142;SDS011;76799;50.146;22.704;2024-03-25T19:32:15;24.92;;;10.75;;
86142;SDS011;76799;50.146;22.704;2024-03-25T19:49:29;11.32;;;6.28;;
86142;SDS011;76799;50.146;22.704;2024-03-25T20:15:07;11.75;;;6.80;;
86142;SDS011;76799;50.146;22.704;2024-03-25T20:20:36;14.95;;;6.53;;
86142;SDS011;76799;50.146;22.704;2024-03-25T20:26:23;14.75;;;7.32;;
86142;SDS011;76799;50.146;22.704;2024-03-25T20:31:51;16.00;;;7.63;;
86142;SDS011;76799;50.146;22.704;2024-03-25T20:37:38;10.60;;;6.05;;
86142;SDS011;76799;50.146;22.704;2024-03-25T20:48:21;12.75;;;6.57;;
86142;SDS011;76799;50.146;22.704;2024-03-25T20:54:08;12.23;;;5.88;;
86142;SDS011;76799;50.146;22.704;2024-03-25T20:59:56;11.70;;;6.30;;
86142;SDS011;76799;50.146;22.704;2024-03-25T21:05:56;11.07;;;5.57;;
86142;SDS011;76799;50.146;22.704;2024-03-25T21:11:44;14.70;;;6.72;;
86142;SDS011;76799;50.146;22.704;2024-03-25T21:17:31;11.63;;;5.10;;
86142;SDS011;76799;50.146;22.704;2024-03-25T21:23:18;9.68;;;5.05;;
86142;SDS011;76799;50.146;22.704;2024-03-25T21:29:05;14.38;;;7.60;;
86142;SDS011;76799;50.146;22.704;2024-03-25T21:34:52;18.55;;;9.38;;
86142;SDS011;76799;50.146;22.704;2024-03-25T21:40:39;14.18;;;7.00;;
86142;SDS011;76799;50.146;22.704;2024-03-25T21:45:50;30.30;;;12.82;;
86142;SDS011;76799;50.146;22.704;2024-03-25T21:51:37;44.17;;;20.05;;
86142;SDS011;76799;50.146;22.704;2024-03-25T21:57:26;33.65;;;14.20;;
86142;SDS011;76799;50.146;22.704;2024-03-25T22:03:13;46.35;;;17.73;;
86142;SDS011;76799;50.146;22.704;2024-03-25T22:09:00;46.47;;;18.90;;
86142;SDS011;76799;50.146;22.704;2024-03-25T22:14:48;32.35;;;14.15;;
86142;SDS011;76799;50.146;22.704;2024-03-25T22:20:38;20.60;;;10.10;;
86142;SDS011;76799;50.146;22.704;2024-03-25T22:26:25;26.73;;;11.88;;
86142;SDS011;76799;50.146;22.704;2024-03-25T22:32:12;25.70;;;11.25;;
86142;SDS011;76799;50.146;22.704;2024-03-25T22:37:59;22.27;;;9.55;;
86142;SDS011;76799;50.146;22.704;2024-03-25T22:43:46;18.77;;;7.50;;
86142;SDS011;76799;50.146;22.704;2024-03-25T22:54:29;14.00;;;6.40;;
86142;SDS011;76799;50.146;22.704;2024-03-25T23:00:16;13.60;;;6.20;;
86142;SDS011;76799;50.146;22.704;2024-03-25T23:06:03;12.73;;;5.93;;
86142;SDS011;76799;50.146;22.704;2024-03-25T23:11:51;16.27;;;6.35;;
86142;SDS011;76799;50.146;22.704;2024-03-25T23:17:38;10.70;;;5.55;;
86142;SDS011;76799;50.146;22.704;2024-03-25T23:23:25;16.45;;;6.50;;
86142;SDS011;76799;50.146;22.704;2024-03-25T23:29:12;15.73;;;6.32;;
86142;SDS011;76799;50.146;22.704;2024-03-25T23:34:59;12.20;;;5.93;;
86142;SDS011;76799;50.146;22.704;2024-03-25T23:40:47;15.10;;;7.60;;
86142;SDS011;76799;50.146;22.704;2024-03-25T23:46:35;20.13;;;7.63;;
86142;SDS011;76799;50.146;22.704;2024-03-25T23:51:46;13.50;;;7.13;;
86142;SDS011;76799;50.146;22.704;2024-03-25T23:57:33;15.75;;;7.82;;
